sensor_id;sensor_type;location;lat;lon;timestamp;P1;durP1;ratioP1;P2;durP2;ratioP2
8704;SDS011;4389;41.932;25.904;2023-10-08T00:02:09;7.87;;;6.87;;
8704;SDS011;4389;41.932;25.904;2023-10-08T00:04:40;14.40;;;7.30;;
8704;SDS011;4389;41.932;25.904;2023-10-08T00:07:09;12.23;;;7.10;;
8704;SDS011;4389;41.932;25.904;2023-10-08T00:09:36;8.23;;;6.97;;
8704;SDS011;4389;41.932;25.904;2023-10-08T00:12:04;8.70;;;6.57;;
8704;SDS011;4389;41.932;25.904;2023-10-08T00:14:33;9.63;;;6.53;;
8704;SDS011;4389;41.932;25.904;2023-10-08T00:17:10;9.33;;;6.53;;
8704;SDS011;4389;41.932;25.904;2023-10-08T00:19:37;12.40;;;7.30;;
8704;SDS011;4389;41.932;25.904;2023-10-08T00:22:06;9.60;;;7.27;;
8704;SDS011;4389;41.932;25.904;2023-10-08T00:24:34;16.93;;;10.77;;
8704;SDS011;4389;41.932;25.904;2023-10-08T00:27:06;13.57;;;10.37;;
8704;SDS011;4389;41.932;25.904;2023-10-08T00:29:33;14.60;;;7.17;;
8704;SDS011;4389;41.932;25.904;2023-10-08T00:32:04;9.73;;;6.83;;
8704;SDS011;4389;41.932;25.904;2023-10-08T00:34:37;14.43;;;7.60;;
8704;SDS011;4389;41.932;25.904;2023-10-08T00:37:08;13.27;;;7.13;;
8704;SDS011;4389;41.932;25.904;2023-10-08T00:39:36;13.50;;;7.13;;
8704;SDS011;4389;41.932;25.904;2023-10-08T00:42:05;9.20;;;7.37;;
8704;SDS011;4389;41.932;25.904;2023-10-08T00:44:33;12.60;;;6.77;;
8704;SDS011;4389;41.932;25.904;2023-10-08T00:47:06;10.00;;;7.70;;
8704;SDS011;4389;41.932;25.904;2023-10-08T00:49:36;14.53;;;8.17;;
8704;SDS011;4389;41.932;25.904;2023-10-08T00:52:21;10.47;;;7.57;;
8704;SDS011;4389;41.932;25.904;2023-10-08T00:55:03;8.63;;;7.10;;
8704;SDS011;4389;41.932;25.904;2023-10-08T00:57:34;12.40;;;7.60;;
8704;SDS011;4389;41.932;25.904;2023-10-08T01:00:07;11.07;;;7.90;;
8704;SDS011;4389;41.932;25.904;2023-10-08T01:02:42;10.40;;;8.07;;
8704;SDS011;4389;41.932;25.904;2023-10-08T01:05:14;10.90;;;8.23;;
8704;SDS011;4389;41.932;25.904;2023-10-08T01:07:45;15.50;;;11.27;;
8704;SDS011;4389;41.932;25.904;2023-10-08T01:10:16;9.37;;;7.50;;
8704;SDS011;4389;41.932;25.904;2023-10-08T01:12:45;13.73;;;8.63;;
8704;SDS011;4389;41.932;25.904;2023-10-08T01:15:29;10.63;;;7.73;;
8704;SDS011;4389;41.932;25.904;2023-10-08T01:18:01;13.93;;;7.80;;
8704;SDS011;4389;41.932;25.904;2023-10-08T01:20:30;12.40;;;7.83;;
8704;SDS011;4389;41.932;25.904;2023-10-08T01:23:03;10.23;;;7.97;;
8704;SDS011;4389;41.932;25.904;2023-10-08T01:25:35;14.13;;;7.90;;
8704;SDS011;4389;41.932;25.904;2023-10-08T01:28:03;12.77;;;9.83;;
8704;SDS011;4389;41.932;25.904;2023-10-08T01:30:35;11.70;;;9.40;;
8704;SDS011;4389;41.932;25.904;2023-10-08T01:33:07;14.40;;;10.53;;
8704;SDS011;4389;41.932;25.904;2023-10-08T01:35:38;11.27;;;8.83;;
8704;SDS011;4389;41.932;25.904;2023-10-08T01:38:06;10.43;;;8.27;;
8704;SDS011;4389;41.932;25.904;2023-10-08T01:40:34;17.00;;;7.83;;
8704;SDS011;4389;41.932;25.904;2023-10-08T01:43:01;12.00;;;8.07;;
8704;SDS011;4389;41.932;25.904;2023-10-08T01:45:29;14.70;;;9.43;;
8704;SDS011;4389;41.932;25.904;2023-10-08T01:47:57;10.77;;;8.93;;
8704;SDS011;4389;41.932;25.904;2023-10-08T01:50:24;16.10;;;11.57;;
8704;SDS011;4389;41.932;25.904;2023-10-08T01:52:51;15.43;;;7.73;;
8704;SDS011;4389;41.932;25.904;2023-10-08T01:55:19;12.10;;;7.90;;
8704;SDS011;4389;41.932;25.904;2023-10-08T01:57:47;11.87;;;8.30;;
8704;SDS011;4389;41.932;25.904;2023-10-08T02:00:16;11.20;;;7.73;;
8704;SDS011;4389;41.932;25.904;2023-10-08T02:02:45;15.20;;;7.97;;
8704;SDS011;4389;41.932;25.904;2023-10-08T02:05:12;9.90;;;7.73;;
8704;SDS011;4389;41.932;25.904;2023-10-08T02:07:40;11.23;;;7.40;;
8704;SDS011;4389;41.932;25.904;2023-10-08T02:10:08;9.50;;;7.40;;
8704;SDS011;4389;41.932;25.904;2023-10-08T02:12:37;9.03;;;7.20;;
8704;SDS011;4389;41.932;25.904;2023-10-08T02:15:04;10.27;;;6.77;;
8704;SDS011;4389;41.932;25.904;2023-10-08T02:17:32;10.87;;;7.40;;
8704;SDS011;4389;41.932;25.904;2023-10-08T02:19:59;9.93;;;7.47;;
8704;SDS011;4389;41.932;25.904;2023-10-08T02:22:26;16.43;;;10.60;;
8704;SDS011;4389;41.932;25.904;2023-10-08T02:24:52;14.20;;;10.17;;
8704;SDS011;4389;41.932;25.904;2023-10-08T02:27:20;12.53;;;8.80;;
8704;SDS011;4389;41.932;25.904;2023-10-08T02:29:49;18.57;;;12.20;;
8704;SDS011;4389;41.932;25.904;2023-10-08T02:32:16;12.50;;;8.80;;
8704;SDS011;4389;41.932;25.904;2023-10-08T02:34:44;8.60;;;7.00;;
8704;SDS011;4389;41.932;25.904;2023-10-08T02:37:11;9.37;;;7.50;;
8704;SDS011;4389;41.932;25.904;2023-10-08T02:39:38;15.80;;;7.87;;
8704;SDS011;4389;41.932;25.904;2023-10-08T02:42:05;8.57;;;7.50;;
8704;SDS011;4389;41.932;25.904;2023-10-08T02:44:35;15.13;;;10.13;;
8704;SDS011;4389;41.932;25.904;2023-10-08T02:47:08;10.17;;;7.17;;
8704;SDS011;4389;41.932;25.904;2023-10-08T02:49:37;12.83;;;7.17;;
8704;SDS011;4389;41.932;25.904;2023-10-08T02:52:06;13.43;;;8.07;;
8704;SDS011;4389;41.932;25.904;2023-10-08T02:54:34;11.83;;;7.27;;
8704;SDS011;4389;41.932;25.904;2023-10-08T02:57:03;16.33;;;8.67;;
8704;SDS011;4389;41.932;25.904;2023-10-08T02:59:35;15.27;;;10.17;;
8704;SDS011;4389;41.932;25.904;2023-10-08T03:02:07;12.20;;;7.20;;
8704;SDS011;4389;41.932;25.904;2023-10-08T03:04:40;13.57;;;8.00;;
8704;SDS011;4389;41.932;25.904;2023-10-08T03:07:08;9.23;;;6.83;;
8704;SDS011;4389;41.932;25.904;2023-10-08T03:09:46;9.73;;;7.77;;
8704;SDS011;4389;41.932;25.904;2023-10-08T03:12:15;10.93;;;8.40;;
8704;SDS011;4389;41.932;25.904;2023-10-08T03:14:43;9.97;;;7.33;;
8704;SDS011;4389;41.932;25.904;2023-10-08T03:17:27;10.93;;;7.43;;
8704;SDS011;4389;41.932;25.904;2023-10-08T03:19:55;10.07;;;8.37;;
8704;SDS011;4389;41.932;25.904;2023-10-08T03:22:27;8.97;;;7.17;;
8704;SDS011;4389;41.932;25.904;2023-10-08T03:24:59;10.07;;;7.23;;
8704;SDS011;4389;41.932;25.904;2023-10-08T03:27:40;8.73;;;7.13;;
8704;SDS011;4389;41.932;25.904;2023-10-08T03:30:08;10.60;;;7.40;;
8704;SDS011;4389;41.932;25.904;2023-10-08T03:32:41;10.70;;;7.60;;
8704;SDS011;4389;41.932;25.904;2023-10-08T03:35:09;10.83;;;8.13;;
8704;SDS011;4389;41.932;25.904;2023-10-08T03:37:37;9.53;;;7.70;;
8704;SDS011;4389;41.932;25.904;2023-10-08T03:40:11;9.53;;;7.53;;
8704;SDS011;4389;41.932;25.904;2023-10-08T03:42:50;10.50;;;7.40;;
8704;SDS011;4389;41.932;25.904;2023-10-08T03:45:17;9.80;;;7.77;;
8704;SDS011;4389;41.932;25.904;2023-10-08T03:47:59;11.73;;;9.87;;
8704;SDS011;4389;41.932;25.904;2023-10-08T03:50:31;10.77;;;8.87;;
8704;SDS011;4389;41.932;25.904;2023-10-08T03:53:06;10.63;;;9.20;;
8704;SDS011;4389;41.932;25.904;2023-10-08T03:55:36;13.33;;;9.47;;
8704;SDS011;4389;41.932;25.904;2023-10-08T03:58:06;16.70;;;10.20;;
8704;SDS011;4389;41.932;25.904;2023-10-08T04:00:37;11.07;;;9.57;;
8704;SDS011;4389;41.932;25.904;2023-10-08T04:03:08;12.33;;;9.50;;
8704;SDS011;4389;41.932;25.904;2023-10-08T04:05:37;15.00;;;9.93;;
8704;SDS011;4389;41.932;25.904;2023-10-08T04:08:24;19.67;;;12.30;;
8704;SDS011;4389;41.932;25.904;2023-10-08T04:11:07;19.50;;;13.50;;
8704;SDS011;4389;41.932;25.904;2023-10-08T04:13:47;21.60;;;12.13;;
8704;SDS011;4389;41.932;25.904;2023-10-08T04:16:14;13.73;;;9.90;;
8704;SDS011;4389;41.932;25.904;2023-10-08T04:18:45;13.70;;;8.33;;
8704;SDS011;4389;41.932;25.904;2023-10-08T04:21:17;14.23;;;9.00;;
8704;SDS011;4389;41.932;25.904;2023-10-08T04:23:46;14.63;;;10.73;;
8704;SDS011;4389;41.932;25.904;2023-10-08T04:26:16;17.23;;;10.97;;
8704;SDS011;4389;41.932;25.904;2023-10-08T04:28:49;20.67;;;12.70;;
8704;SDS011;4389;41.932;25.904;2023-10-08T04:31:20;17.53;;;11.93;;
8704;SDS011;4389;41.932;25.904;2023-10-08T04:33:51;15.57;;;11.27;;
8704;SDS011;4389;41.932;25.904;2023-10-08T04:36:19;14.47;;;11.40;;
8704;SDS011;4389;41.932;25.904;2023-10-08T04:38:47;18.07;;;12.60;;
8704;SDS011;4389;41.932;25.904;2023-10-08T04:41:19;21.03;;;10.70;;
8704;SDS011;4389;41.932;25.904;2023-10-08T04:43:47;21.27;;;11.80;;
8704;SDS011;4389;41.932;25.904;2023-10-08T04:46:14;16.67;;;10.07;;
8704;SDS011;4389;41.932;25.904;2023-10-08T04:49:06;35.83;;;13.67;;
8704;SDS011;4389;41.932;25.904;2023-10-08T04:51:44;60.03;;;15.37;;
8704;SDS011;4389;41.932;25.904;2023-10-08T04:54:11;34.40;;;12.93;;
8704;SDS011;4389;41.932;25.904;2023-10-08T04:56:41;19.47;;;11.63;;
8704;SDS011;4389;41.932;25.904;2023-10-08T04:59:08;15.47;;;10.50;;
8704;SDS011;4389;41.932;25.904;2023-10-08T05:01:37;17.20;;;10.23;;
8704;SDS011;4389;41.932;25.904;2023-10-08T05:04:13;14.33;;;9.83;;
8704;SDS011;4389;41.932;25.904;2023-10-08T05:06:52;18.27;;;10.53;;
8704;SDS011;4389;41.932;25.904;2023-10-08T05:09:43;16.10;;;10.67;;
8704;SDS011;4389;41.932;25.904;2023-10-08T05:12:37;14.00;;;10.07;;
8704;SDS011;4389;41.932;25.904;2023-10-08T05:15:11;14.40;;;9.63;;
8704;SDS011;4389;41.932;25.904;2023-10-08T05:17:58;18.93;;;9.77;;
8704;SDS011;4389;41.932;25.904;2023-10-08T05:20:40;11.73;;;9.10;;
8704;SDS011;4389;41.932;25.904;2023-10-08T05:23:24;19.13;;;10.33;;
8704;SDS011;4389;41.932;25.904;2023-10-08T05:26:14;13.80;;;9.90;;
8704;SDS011;4389;41.932;25.904;2023-10-08T05:28:56;13.43;;;9.33;;
8704;SDS011;4389;41.932;25.904;2023-10-08T05:31:26;15.70;;;10.20;;
8704;SDS011;4389;41.932;25.904;2023-10-08T05:34:12;16.30;;;9.33;;
8704;SDS011;4389;41.932;25.904;2023-10-08T05:36:49;14.47;;;10.40;;
8704;SDS011;4389;41.932;25.904;2023-10-08T05:39:36;28.53;;;22.70;;
8704;SDS011;4389;41.932;25.904;2023-10-08T05:42:06;15.57;;;12.57;;
8704;SDS011;4389;41.932;25.904;2023-10-08T05:44:42;19.80;;;14.30;;
8704;SDS011;4389;41.932;25.904;2023-10-08T05:47:11;34.33;;;20.50;;
8704;SDS011;4389;41.932;25.904;2023-10-08T05:50:03;25.60;;;23.10;;
8704;SDS011;4389;41.932;25.904;2023-10-08T05:52:52;22.07;;;18.33;;
8704;SDS011;4389;41.932;25.904;2023-10-08T05:55:30;22.47;;;20.13;;
8704;SDS011;4389;41.932;25.904;2023-10-08T05:58:06;17.70;;;14.70;;
8704;SDS011;4389;41.932;25.904;2023-10-08T06:01:00;23.40;;;19.47;;
8704;SDS011;4389;41.932;25.904;2023-10-08T06:03:33;27.43;;;21.97;;
8704;SDS011;4389;41.932;25.904;2023-10-08T06:06:11;30.57;;;22.97;;
8704;SDS011;4389;41.932;25.904;2023-10-08T06:09:02;22.27;;;20.00;;
8704;SDS011;4389;41.932;25.904;2023-10-08T06:11:47;21.23;;;17.87;;
8704;SDS011;4389;41.932;25.904;2023-10-08T06:14:35;18.37;;;14.77;;
8704;SDS011;4389;41.932;25.904;2023-10-08T06:17:21;19.70;;;13.93;;
8704;SDS011;4389;41.932;25.904;2023-10-08T06:20:00;26.37;;;15.20;;
8704;SDS011;4389;41.932;25.904;2023-10-08T06:22:35;31.47;;;15.10;;
8704;SDS011;4389;41.932;25.904;2023-10-08T06:25:04;24.17;;;14.67;;
8704;SDS011;4389;41.932;25.904;2023-10-08T06:27:43;24.20;;;13.83;;
8704;SDS011;4389;41.932;25.904;2023-10-08T06:30:11;23.00;;;14.70;;
8704;SDS011;4389;41.932;25.904;2023-10-08T06:32:42;21.33;;;14.50;;
8704;SDS011;4389;41.932;25.904;2023-10-08T06:35:11;22.40;;;13.20;;
8704;SDS011;4389;41.932;25.904;2023-10-08T06:37:43;17.57;;;13.03;;
8704;SDS011;4389;41.932;25.904;2023-10-08T06:40:12;21.67;;;12.83;;
8704;SDS011;4389;41.932;25.904;2023-10-08T06:43:06;15.07;;;13.27;;
8704;SDS011;4389;41.932;25.904;2023-10-08T06:45:40;16.63;;;13.57;;
8704;SDS011;4389;41.932;25.904;2023-10-08T06:48:08;13.90;;;11.73;;
8704;SDS011;4389;41.932;25.904;2023-10-08T06:50:35;14.37;;;11.97;;
8704;SDS011;4389;41.932;25.904;2023-10-08T06:53:02;22.03;;;10.77;;
8704;SDS011;4389;41.932;25.904;2023-10-08T06:55:34;12.03;;;10.47;;
8704;SDS011;4389;41.932;25.904;2023-10-08T06:58:01;17.50;;;12.40;;
8704;SDS011;4389;41.932;25.904;2023-10-08T07:00:33;14.17;;;10.57;;
8704;SDS011;4389;41.932;25.904;2023-10-08T07:03:05;16.47;;;9.83;;
8704;SDS011;4389;41.932;25.904;2023-10-08T07:05:35;14.17;;;7.80;;
8704;SDS011;4389;41.932;25.904;2023-10-08T07:08:09;13.63;;;7.97;;
8704;SDS011;4389;41.932;25.904;2023-10-08T07:10:39;11.17;;;8.07;;
8704;SDS011;4389;41.932;25.904;2023-10-08T07:13:07;11.27;;;8.27;;
8704;SDS011;4389;41.932;25.904;2023-10-08T07:15:35;11.90;;;7.80;;
8704;SDS011;4389;41.932;25.904;2023-10-08T07:18:05;20.93;;;8.40;;
8704;SDS011;4389;41.932;25.904;2023-10-08T07:20:39;15.60;;;9.70;;
8704;SDS011;4389;41.932;25.904;2023-10-08T07:23:08;13.87;;;8.70;;
8704;SDS011;4389;41.932;25.904;2023-10-08T07:25:48;11.70;;;7.13;;
8704;SDS011;4389;41.932;25.904;2023-10-08T07:28:22;33.20;;;7.90;;
8704;SDS011;4389;41.932;25.904;2023-10-08T07:30:50;18.90;;;6.83;;
8704;SDS011;4389;41.932;25.904;2023-10-08T07:33:17;12.80;;;6.60;;
8704;SDS011;4389;41.932;25.904;2023-10-08T07:35:45;7.17;;;5.03;;
8704;SDS011;4389;41.932;25.904;2023-10-08T07:38:29;19.10;;;6.57;;
8704;SDS011;4389;41.932;25.904;2023-10-08T07:40:57;11.60;;;6.30;;
8704;SDS011;4389;41.932;25.904;2023-10-08T07:43:26;10.50;;;5.80;;
8704;SDS011;4389;41.932;25.904;2023-10-08T07:45:57;11.37;;;6.97;;
8704;SDS011;4389;41.932;25.904;2023-10-08T07:48:25;10.70;;;5.27;;
8704;SDS011;4389;41.932;25.904;2023-10-08T07:50:55;11.40;;;5.57;;
8704;SDS011;4389;41.932;25.904;2023-10-08T07:53:22;13.40;;;5.40;;
8704;SDS011;4389;41.932;25.904;2023-10-08T07:55:49;11.47;;;5.90;;
8704;SDS011;4389;41.932;25.904;2023-10-08T07:58:18;9.83;;;4.93;;
8704;SDS011;4389;41.932;25.904;2023-10-08T08:07:57;9.23;;;5.23;;
8704;SDS011;4389;41.932;25.904;2023-10-08T08:10:24;10.13;;;5.50;;
8704;SDS011;4389;41.932;25.904;2023-10-08T08:12:51;13.67;;;5.00;;
8704;SDS011;4389;41.932;25.904;2023-10-08T08:15:23;14.10;;;5.20;;
8704;SDS011;4389;41.932;25.904;2023-10-08T08:17:52;12.27;;;4.23;;
8704;SDS011;4389;41.932;25.904;2023-10-08T08:20:18;10.00;;;4.57;;
8704;SDS011;4389;41.932;25.904;2023-10-08T08:22:47;9.20;;;5.37;;
8704;SDS011;4389;41.932;25.904;2023-10-08T08:25:19;7.33;;;4.57;;
8704;SDS011;4389;41.932;25.904;2023-10-08T08:27:59;22.87;;;5.00;;
8704;SDS011;4389;41.932;25.904;2023-10-08T08:30:27;15.47;;;5.20;;
8704;SDS011;4389;41.932;25.904;2023-10-08T08:32:54;12.67;;;4.90;;
8704;SDS011;4389;41.932;25.904;2023-10-08T08:35:21;8.87;;;4.43;;
8704;SDS011;4389;41.932;25.904;2023-10-08T08:37:49;10.07;;;4.63;;
8704;SDS011;4389;41.932;25.904;2023-10-08T08:40:17;16.10;;;4.83;;
8704;SDS011;4389;41.932;25.904;2023-10-08T08:42:44;9.67;;;4.90;;
8704;SDS011;4389;41.932;25.904;2023-10-08T08:45:12;7.37;;;4.63;;
8704;SDS011;4389;41.932;25.904;2023-10-08T08:47:45;14.90;;;5.10;;
8704;SDS011;4389;41.932;25.904;2023-10-08T08:50:12;5.93;;;4.40;;
8704;SDS011;4389;41.932;25.904;2023-10-08T08:52:40;8.60;;;5.50;;
8704;SDS011;4389;41.932;25.904;2023-10-08T08:55:07;7.13;;;4.40;;
8704;SDS011;4389;41.932;25.904;2023-10-08T08:57:39;8.97;;;4.80;;
8704;SDS011;4389;41.932;25.904;2023-10-08T09:00:09;7.17;;;4.60;;
8704;SDS011;4389;41.932;25.904;2023-10-08T09:02:39;12.60;;;5.33;;
8704;SDS011;4389;41.932;25.904;2023-10-08T09:05:08;12.23;;;5.37;;
8704;SDS011;4389;41.932;25.904;2023-10-08T09:07:53;7.17;;;4.77;;
8704;SDS011;4389;41.932;25.904;2023-10-08T09:10:22;11.33;;;4.53;;
8704;SDS011;4389;41.932;25.904;2023-10-08T09:12:53;7.73;;;4.97;;
8704;SDS011;4389;41.932;25.904;2023-10-08T09:15:22;9.23;;;4.70;;
8704;SDS011;4389;41.932;25.904;2023-10-08T09:17:51;12.77;;;5.07;;
8704;SDS011;4389;41.932;25.904;2023-10-08T09:20:20;7.63;;;4.80;;
8704;SDS011;4389;41.932;25.904;2023-10-08T09:22:47;12.43;;;4.57;;
8704;SDS011;4389;41.932;25.904;2023-10-08T09:25:33;9.03;;;4.53;;
8704;SDS011;4389;41.932;25.904;2023-10-08T09:28:00;8.20;;;4.53;;
8704;SDS011;4389;41.932;25.904;2023-10-08T09:30:28;8.47;;;5.03;;
8704;SDS011;4389;41.932;25.904;2023-10-08T09:32:55;16.57;;;5.30;;
8704;SDS011;4389;41.932;25.904;2023-10-08T09:35:24;12.67;;;4.73;;
8704;SDS011;4389;41.932;25.904;2023-10-08T09:37:52;10.47;;;4.63;;
8704;SDS011;4389;41.932;25.904;2023-10-08T09:40:20;10.20;;;4.50;;
8704;SDS011;4389;41.932;25.904;2023-10-08T09:42:48;9.00;;;5.20;;
8704;SDS011;4389;41.932;25.904;2023-10-08T09:45:15;12.27;;;5.23;;
8704;SDS011;4389;41.932;25.904;2023-10-08T09:47:42;8.93;;;4.90;;
8704;SDS011;4389;41.932;25.904;2023-10-08T09:50:16;11.57;;;4.93;;
8704;SDS011;4389;41.932;25.904;2023-10-08T09:52:53;10.93;;;4.57;;
8704;SDS011;4389;41.932;25.904;2023-10-08T09:55:26;18.23;;;5.57;;
8704;SDS011;4389;41.932;25.904;2023-10-08T09:57:54;10.70;;;4.90;;
8704;SDS011;4389;41.932;25.904;2023-10-08T10:00:22;13.83;;;5.83;;
8704;SDS011;4389;41.932;25.904;2023-10-08T10:02:56;9.03;;;4.93;;
8704;SDS011;4389;41.932;25.904;2023-10-08T10:05:28;6.93;;;4.20;;
8704;SDS011;4389;41.932;25.904;2023-10-08T10:07:58;14.52;;;5.63;;
8704;SDS011;4389;41.932;25.904;2023-10-08T10:10:25;8.90;;;5.10;;
8704;SDS011;4389;41.932;25.904;2023-10-08T10:12:53;7.55;;;4.47;;
8704;SDS011;4389;41.932;25.904;2023-10-08T10:15:24;13.95;;;4.68;;
8704;SDS011;4389;41.932;25.904;2023-10-08T10:17:51;7.80;;;4.65;;
8704;SDS011;4389;41.932;25.904;2023-10-08T10:20:20;13.98;;;5.30;;
8704;SDS011;4389;41.932;25.904;2023-10-08T10:22:47;12.23;;;5.15;;
8704;SDS011;4389;41.932;25.904;2023-10-08T10:25:17;6.85;;;4.57;;
8704;SDS011;4389;41.932;25.904;2023-10-08T10:30:40;5.43;;;3.45;;
8704;SDS011;4389;41.932;25.904;2023-10-08T10:33:07;5.90;;;4.40;;
8704;SDS011;4389;41.932;25.904;2023-10-08T10:35:36;11.18;;;4.25;;
8704;SDS011;4389;41.932;25.904;2023-10-08T10:38:05;6.80;;;4.20;;
8704;SDS011;4389;41.932;25.904;2023-10-08T10:40:33;7.70;;;4.18;;
8704;SDS011;4389;41.932;25.904;2023-10-08T10:43:05;7.25;;;4.10;;
8704;SDS011;4389;41.932;25.904;2023-10-08T10:45:34;6.97;;;4.35;;
8704;SDS011;4389;41.932;25.904;2023-10-08T10:48:01;11.15;;;4.82;;
8704;SDS011;4389;41.932;25.904;2023-10-08T10:50:38;11.77;;;5.05;;
8704;SDS011;4389;41.932;25.904;2023-10-08T10:53:14;8.70;;;4.20;;
8704;SDS011;4389;41.932;25.904;2023-10-08T10:55:43;8.55;;;4.63;;
8704;SDS011;4389;41.932;25.904;2023-10-08T10:58:24;7.93;;;4.13;;
8704;SDS011;4389;41.932;25.904;2023-10-08T11:00:50;14.63;;;4.90;;
8704;SDS011;4389;41.932;25.904;2023-10-08T11:03:25;16.90;;;4.35;;
8704;SDS011;4389;41.932;25.904;2023-10-08T11:05:54;6.57;;;4.05;;
8704;SDS011;4389;41.932;25.904;2023-10-08T11:08:25;9.00;;;4.10;;
8704;SDS011;4389;41.932;25.904;2023-10-08T11:11:00;10.80;;;3.92;;
8704;SDS011;4389;41.932;25.904;2023-10-08T11:13:32;8.70;;;4.03;;
8704;SDS011;4389;41.932;25.904;2023-10-08T11:16:14;12.38;;;4.60;;
8704;SDS011;4389;41.932;25.904;2023-10-08T11:18:42;16.70;;;4.55;;
8704;SDS011;4389;41.932;25.904;2023-10-08T11:21:12;6.93;;;4.18;;
8704;SDS011;4389;41.932;25.904;2023-10-08T11:23:43;7.60;;;4.60;;
8704;SDS011;4389;41.932;25.904;2023-10-08T11:26:19;10.07;;;4.38;;
8704;SDS011;4389;41.932;25.904;2023-10-08T11:28:47;8.80;;;4.18;;
8704;SDS011;4389;41.932;25.904;2023-10-08T11:31:14;12.27;;;4.43;;
8704;SDS011;4389;41.932;25.904;2023-10-08T11:33:45;14.02;;;4.70;;
8704;SDS011;4389;41.932;25.904;2023-10-08T11:36:19;11.27;;;4.25;;
8704;SDS011;4389;41.932;25.904;2023-10-08T11:38:53;10.90;;;4.15;;
8704;SDS011;4389;41.932;25.904;2023-10-08T11:41:27;7.68;;;3.50;;
8704;SDS011;4389;41.932;25.904;2023-10-08T11:43:55;8.25;;;3.72;;
8704;SDS011;4389;41.932;25.904;2023-10-08T11:46:23;10.77;;;4.20;;
8704;SDS011;4389;41.932;25.904;2023-10-08T11:48:52;5.82;;;3.58;;
8704;SDS011;4389;41.932;25.904;2023-10-08T11:51:23;17.10;;;4.57;;
8704;SDS011;4389;41.932;25.904;2023-10-08T11:53:50;7.55;;;4.13;;
8704;SDS011;4389;41.932;25.904;2023-10-08T11:56:18;8.73;;;3.55;;
8704;SDS011;4389;41.932;25.904;2023-10-08T11:58:49;11.23;;;4.18;;
8704;SDS011;4389;41.932;25.904;2023-10-08T12:01:17;11.73;;;4.60;;
8704;SDS011;4389;41.932;25.904;2023-10-08T12:03:45;11.43;;;4.22;;
8704;SDS011;4389;41.932;25.904;2023-10-08T12:06:15;7.22;;;4.10;;
8704;SDS011;4389;41.932;25.904;2023-10-08T12:08:44;16.42;;;4.20;;
8704;SDS011;4389;41.932;25.904;2023-10-08T12:11:14;11.02;;;4.13;;
8704;SDS011;4389;41.932;25.904;2023-10-08T12:13:42;6.43;;;3.75;;
8704;SDS011;4389;41.932;25.904;2023-10-08T12:16:14;13.55;;;5.22;;
8704;SDS011;4389;41.932;25.904;2023-10-08T12:18:48;7.93;;;4.40;;
8704;SDS011;4389;41.932;25.904;2023-10-08T12:21:18;12.95;;;4.03;;
8704;SDS011;4389;41.932;25.904;2023-10-08T12:23:47;5.72;;;4.10;;
8704;SDS011;4389;41.932;25.904;2023-10-08T12:26:15;8.82;;;3.60;;
8704;SDS011;4389;41.932;25.904;2023-10-08T12:28:44;13.40;;;4.32;;
8704;SDS011;4389;41.932;25.904;2023-10-08T12:31:14;8.80;;;4.00;;
8704;SDS011;4389;41.932;25.904;2023-10-08T12:33:42;9.52;;;4.43;;
8704;SDS011;4389;41.932;25.904;2023-10-08T12:36:12;8.77;;;3.53;;
8704;SDS011;4389;41.932;25.904;2023-10-08T12:38:42;8.25;;;3.72;;
8704;SDS011;4389;41.932;25.904;2023-10-08T12:41:09;7.65;;;3.50;;
8704;SDS011;4389;41.932;25.904;2023-10-08T12:43:42;8.40;;;3.35;;
8704;SDS011;4389;41.932;25.904;2023-10-08T12:46:11;15.90;;;4.50;;
8704;SDS011;4389;41.932;25.904;2023-10-08T12:48:45;9.02;;;3.55;;
8704;SDS011;4389;41.932;25.904;2023-10-08T12:51:17;9.73;;;4.13;;
8704;SDS011;4389;41.932;25.904;2023-10-08T12:53:49;9.45;;;4.15;;
8704;SDS011;4389;41.932;25.904;2023-10-08T12:56:24;8.45;;;3.90;;
8704;SDS011;4389;41.932;25.904;2023-10-08T12:58:57;9.15;;;4.95;;
8704;SDS011;4389;41.932;25.904;2023-10-08T13:01:24;9.75;;;3.42;;
8704;SDS011;4389;41.932;25.904;2023-10-08T13:03:55;11.98;;;3.70;;
8704;SDS011;4389;41.932;25.904;2023-10-08T13:06:26;12.35;;;3.50;;
8704;SDS011;4389;41.932;25.904;2023-10-08T13:08:54;7.50;;;3.40;;
8704;SDS011;4389;41.932;25.904;2023-10-08T13:11:22;7.68;;;3.75;;
8704;SDS011;4389;41.932;25.904;2023-10-08T13:13:50;10.82;;;3.88;;
8704;SDS011;4389;41.932;25.904;2023-10-08T13:16:18;8.35;;;3.50;;
8704;SDS011;4389;41.932;25.904;2023-10-08T13:18:46;9.23;;;4.03;;
8704;SDS011;4389;41.932;25.904;2023-10-08T13:21:14;6.28;;;3.88;;
8704;SDS011;4389;41.932;25.904;2023-10-08T13:23:44;9.07;;;3.42;;
8704;SDS011;4389;41.932;25.904;2023-10-08T13:26:11;6.05;;;3.55;;
8704;SDS011;4389;41.932;25.904;2023-10-08T13:28:42;8.95;;;2.90;;
8704;SDS011;4389;41.932;25.904;2023-10-08T13:31:10;7.80;;;3.30;;
8704;SDS011;4389;41.932;25.904;2023-10-08T13:33:37;7.38;;;3.63;;
8704;SDS011;4389;41.932;25.904;2023-10-08T13:36:05;10.23;;;3.58;;
8704;SDS011;4389;41.932;25.904;2023-10-08T13:38:36;8.13;;;3.53;;
8704;SDS011;4389;41.932;25.904;2023-10-08T13:41:03;12.52;;;3.85;;
8704;SDS011;4389;41.932;25.904;2023-10-08T13:43:40;11.20;;;3.15;;
8704;SDS011;4389;41.932;25.904;2023-10-08T13:46:10;17.05;;;4.15;;
8704;SDS011;4389;41.932;25.904;2023-10-08T13:48:39;6.63;;;3.20;;
8704;SDS011;4389;41.932;25.904;2023-10-08T13:51:07;9.23;;;3.92;;
8704;SDS011;4389;41.932;25.904;2023-10-08T13:53:41;10.63;;;3.45;;
8704;SDS011;4389;41.932;25.904;2023-10-08T13:56:10;12.35;;;4.22;;
8704;SDS011;4389;41.932;25.904;2023-10-08T13:58:39;6.93;;;3.80;;
8704;SDS011;4389;41.932;25.904;2023-10-08T14:01:11;8.70;;;3.80;;
8704;SDS011;4389;41.932;25.904;2023-10-08T14:03:44;13.82;;;4.03;;
8704;SDS011;4389;41.932;25.904;2023-10-08T14:06:12;11.05;;;4.13;;
8704;SDS011;4389;41.932;25.904;2023-10-08T14:08:40;7.72;;;3.55;;
8704;SDS011;4389;41.932;25.904;2023-10-08T14:11:09;11.27;;;4.18;;
8704;SDS011;4389;41.932;25.904;2023-10-08T14:13:38;14.07;;;3.80;;
8704;SDS011;4389;41.932;25.904;2023-10-08T14:16:07;13.32;;;3.90;;
8704;SDS011;4389;41.932;25.904;2023-10-08T14:18:36;12.50;;;4.03;;
8704;SDS011;4389;41.932;25.904;2023-10-08T14:21:06;16.20;;;4.32;;
8704;SDS011;4389;41.932;25.904;2023-10-08T14:23:35;10.00;;;4.07;;
8704;SDS011;4389;41.932;25.904;2023-10-08T14:26:06;9.98;;;4.53;;
8704;SDS011;4389;41.932;25.904;2023-10-08T14:28:33;12.45;;;3.40;;
8704;SDS011;4389;41.932;25.904;2023-10-08T14:31:08;19.77;;;4.93;;
8704;SDS011;4389;41.932;25.904;2023-10-08T14:33:40;16.58;;;4.70;;
8704;SDS011;4389;41.932;25.904;2023-10-08T14:36:09;11.80;;;4.28;;
8704;SDS011;4389;41.932;25.904;2023-10-08T14:38:53;16.70;;;4.13;;
8704;SDS011;4389;41.932;25.904;2023-10-08T14:41:39;11.65;;;3.72;;
8704;SDS011;4389;41.932;25.904;2023-10-08T14:44:24;10.70;;;4.00;;
8704;SDS011;4389;41.932;25.904;2023-10-08T14:46:51;7.65;;;3.45;;
8704;SDS011;4389;41.932;25.904;2023-10-08T14:49:20;15.38;;;4.45;;
8704;SDS011;4389;41.932;25.904;2023-10-08T14:51:47;14.82;;;4.63;;
8704;SDS011;4389;41.932;25.904;2023-10-08T14:54:15;11.38;;;4.10;;
8704;SDS011;4389;41.932;25.904;2023-10-08T14:56:43;9.55;;;4.38;;
8704;SDS011;4389;41.932;25.904;2023-10-08T14:59:10;18.70;;;4.47;;
8704;SDS011;4389;41.932;25.904;2023-10-08T15:01:37;13.40;;;3.88;;
8704;SDS011;4389;41.932;25.904;2023-10-08T15:04:04;25.70;;;4.93;;
8704;SDS011;4389;41.932;25.904;2023-10-08T15:06:31;18.30;;;4.90;;
8704;SDS011;4389;41.932;25.904;2023-10-08T15:08:58;12.05;;;4.28;;
8704;SDS011;4389;41.932;25.904;2023-10-08T15:11:27;17.30;;;4.63;;
8704;SDS011;4389;41.932;25.904;2023-10-08T15:13:57;9.15;;;4.68;;
8704;SDS011;4389;41.932;25.904;2023-10-08T15:16:24;8.88;;;4.10;;
8704;SDS011;4389;41.932;25.904;2023-10-08T15:18:51;12.25;;;4.85;;
8704;SDS011;4389;41.932;25.904;2023-10-08T15:21:19;10.85;;;4.45;;
8704;SDS011;4389;41.932;25.904;2023-10-08T15:23:46;13.63;;;4.38;;
8704;SDS011;4389;41.932;25.904;2023-10-08T15:26:13;14.88;;;5.88;;